Time;durP1;ratioP1;P1;durP2;ratioP2;P2;SDS_P1;SDS_P2;PMS_P1;PMS_P2;Temp;Humidity;BMP_temperature;BMP_pressure;BME280_temperature;BME280_humidity;BME280_pressure;Samples;Min_cycle;Max_cycle;Signal;HPM_P1;HPM_P2
2023/12/05 00:04:44;;;;;;;1999.90;999.90;;;;;;;9.56;69.08;99837.00;10418118;28;20056;-62
2023/12/05 00:09:46;;;;;;;1999.90;999.90;;;;;;;9.75;68.12;99825.28;10418071;28;20053;-63
2023/12/05 00:14:49;;;;;;;1999.90;999.90;;;;;;;9.96;68.49;99829.00;10416636;28;20049;-63
2023/12/05 00:19:51;;;;;;;1999.90;999.90;;;;;;;9.56;68.37;99821.31;10416382;28;20393;-62
2023/12/05 00:24:53;;;;;;;1999.90;999.90;;;;;;;9.27;71.22;99829.38;10417293;28;20064;-63
2023/12/05 00:29:56;;;;;;;1999.90;999.90;;;;;;;9.46;70.66;99823.75;10416028;28;20053;-62
2023/12/05 00:34:58;;;;;;;1999.90;999.90;;;;;;;9.73;69.64;99820.16;10417272;28;20052;-63
2023/12/05 00:40:00;;;;;;;1999.90;999.90;;;;;;;9.41;71.64;99819.75;10415739;28;20507;-63
2023/12/05 00:45:03;;;;;;;1999.90;999.90;;;;;;;9.43;69.96;99807.44;10416419;28;20049;-63
2023/12/05 00:50:06;;;;;;;1999.90;999.90;;;;;;;8.96;73.19;99811.47;10416430;28;20069;-63
2023/12/05 00:55:08;;;;;;;1999.90;999.90;;;;;;;9.33;70.86;99806.38;10415321;28;20077;-63
2023/12/05 01:00:11;;;;;;;1999.90;999.90;;;;;;;9.50;69.23;99806.09;10416104;28;20560;-63
2023/12/05 01:05:14;;;;;;;1999.90;999.90;;;;;;;9.98;68.90;99803.59;10415747;28;20128;-63
2023/12/05 01:10:16;;;;;;;1999.90;999.90;;;;;;;9.90;67.78;99805.09;10416009;28;20057;-62
2023/12/05 01:15:19;;;;;;;1999.90;999.90;;;;;;;9.48;71.10;99798.34;10415885;28;20103;-62
2023/12/05 01:20:21;;;;;;;1999.90;999.90;;;;;;;9.31;71.96;99803.88;10414356;28;20053;-62
2023/12/05 01:25:24;;;;;;;1999.90;999.90;;;;;;;9.85;68.89;99801.03;10414952;28;20060;-63
2023/12/05 01:30:26;;;;;;;1999.90;999.90;;;;;;;9.65;69.72;99805.03;10414139;28;20136;-63
2023/12/05 01:35:29;;;;;;;1999.90;999.90;;;;;;;9.79;68.90;99790.16;10415048;28;20046;-62
2023/12/05 01:40:31;;;;;;;1999.90;999.90;;;;;;;9.69;68.69;99800.41;10415128;28;20049;-62
2023/12/05 01:45:33;;;;;;;1999.90;999.90;;;;;;;9.98;68.41;99805.38;10413652;28;20045;-62
2023/12/05 01:50:36;;;;;;;1999.90;999.90;;;;;;;9.24;73.71;99800.03;10414962;28;20057;-63
2023/12/05 01:55:38;;;;;;;1999.90;999.90;;;;;;;9.30;73.04;99799.59;10414646;28;20046;-62
2023/12/05 02:00:41;;;;;;;1999.90;999.90;;;;;;;9.80;71.39;99797.03;10397348;28;20056;-63
2023/12/05 02:05:44;;;;;;;1999.90;999.90;;;;;;;9.68;71.49;99803.97;10413288;28;20088;-62
2023/12/05 02:10:46;;;;;;;1999.90;999.90;;;;;;;9.49;71.37;99800.00;10422709;28;20119;-62
2023/12/05 02:15:58;;;;;;;1999.90;999.90;;;;;;;9.74;72.12;99794.88;10422817;28;20052;-62
2023/12/05 02:21:15;;;;;;;1999.90;999.90;;;;;;;9.97;70.25;99798.47;10422117;28;20045;-62
2023/12/05 02:26:49;;;;;;;1999.90;999.90;;;;;;;10.02;70.15;99797.22;10421752;28;20050;-62
2023/12/05 02:31:52;;;;;;;1999.90;999.90;;;;;;;9.44;72.67;99796.03;10420667;28;20404;-63
2023/12/05 02:37:10;;;;;;;1999.90;999.90;;;;;;;9.69;72.34;99789.13;10433144;22;20104;-61
2023/12/05 02:42:14;;;;;;;1999.90;999.90;;;;;;;9.74;71.21;99787.88;10421591;28;20055;-61
2023/12/05 02:47:19;;;;;;;1999.90;999.90;;;;;;;9.91;70.17;99788.47;10421363;28;20048;-61
2023/12/05 02:52:22;;;;;;;1999.90;999.90;;;;;;;10.03;70.75;99795.44;10420306;28;20053;-61
2023/12/05 02:57:24;;;;;;;1999.90;999.90;;;;;;;10.26;69.45;99785.94;10419966;28;20051;-61
2023/12/05 03:02:27;;;;;;;1999.90;999.90;;;;;;;10.15;69.47;99788.47;10420700;28;20049;-61
2023/12/05 03:07:29;;;;;;;1999.90;999.90;;;;;;;10.28;68.85;99786.66;10419549;28;20045;-61
2023/12/05 03:12:33;;;;;;;1999.90;999.90;;;;;;;9.81;70.26;99791.72;10420235;28;20468;-61
2023/12/05 03:17:36;;;;;;;1999.90;999.90;;;;;;;9.61;70.16;99785.25;10418098;28;20493;-61
2023/12/05 03:22:38;;;;;;;1999.90;999.90;;;;;;;10.01;69.17;99782.47;10418653;28;20476;-61
2023/12/05 03:27:41;;;;;;;1999.90;999.90;;;;;;;9.98;69.65;99772.22;10418510;28;20047;-61
2023/12/05 03:32:43;;;;;;;1999.90;999.90;;;;;;;9.85;69.68;99780.09;10419662;28;20128;-61
2023/12/05 03:37:45;;;;;;;1999.90;999.90;;;;;;;10.38;68.03;99771.16;10419133;28;20100;-61
2023/12/05 03:42:48;;;;;;;1999.90;999.90;;;;;;;10.23;68.54;99773.06;10419517;28;20073;-61
2023/12/05 03:47:50;;;;;;;1999.90;999.90;;;;;;;10.41;68.53;99774.38;10418904;28;20485;-61
2023/12/05 03:52:53;;;;;;;1999.90;999.90;;;;;;;10.41;67.34;99769.16;10419024;28;20049;-61
2023/12/05 03:57:56;;;;;;;1999.90;999.90;;;;;;;10.37;68.07;99778.19;10418534;28;20560;-61
2023/12/05 04:02:58;;;;;;;1999.90;999.90;;;;;;;10.10;68.49;99787.97;10418391;28;20481;-61
2023/12/05 04:08:01;;;;;;;1999.90;999.90;;;;;;;10.11;69.13;99790.50;10418338;28;20049;-61
2023/12/05 04:13:03;;;;;;;1999.90;999.90;;;;;;;9.90;69.12;99790.25;10417955;28;20441;-61
2023/12/05 04:18:05;;;;;;;1999.90;999.90;;;;;;;10.26;67.91;99785.13;10417987;28;20059;-61
2023/12/05 04:23:08;;;;;;;1999.90;999.90;;;;;;;10.11;67.94;99785.25;10416506;28;20132;-61
2023/12/05 04:28:10;;;;;;;1999.90;999.90;;;;;;;9.86;67.29;99783.56;10417297;28;20506;-61
2023/12/05 04:33:13;;;;;;;1999.90;999.90;;;;;;;9.58;69.15;99795.94;10417130;28;20053;-61
2023/12/05 04:38:16;;;;;;;1999.90;999.90;;;;;;;9.90;68.74;99797.25;10416897;28;20057;-61
2023/12/05 04:43:18;;;;;;;1999.90;999.90;;;;;;;10.41;67.27;99791.88;10417014;28;20133;-61
2023/12/05 04:48:21;;;;;;;1999.90;999.90;;;;;;;9.49;69.01;99801.78;10416398;28;20095;-61
2023/12/05 04:53:24;;;;;;;1999.90;999.90;;;;;;;10.41;66.99;99807.59;10416792;28;20049;-61
2023/12/05 04:58:26;;;;;;;1999.90;999.90;;;;;;;9.84;69.11;99804.56;10416537;28;20132;-61
2023/12/05 05:03:29;;;;;;;1999.90;999.90;;;;;;;9.87;66.99;99808.75;10416189;28;20476;-61
2023/12/05 05:08:31;;;;;;;1999.90;999.90;;;;;;;10.34;66.11;99808.94;10415828;28;20378;-61
2023/12/05 05:13:34;;;;;;;1999.90;999.90;;;;;;;9.85;68.79;99811.47;10415804;28;20136;-61
2023/12/05 05:18:52;;;;;;;1999.90;999.90;;;;;;;10.14;67.90;99805.97;10415625;28;20485;-61
2023/12/05 05:23:55;;;;;;;1999.90;999.90;;;;;;;9.98;66.30;99808.00;10414264;28;20485;-61
2023/12/05 05:28:59;;;;;;;1999.90;999.90;;;;;;;10.22;66.40;99815.88;10415233;28;20041;-61
2023/12/05 05:34:02;;;;;;;1999.90;999.90;;;;;;;10.00;67.64;99824.41;10415459;28;20045;-61
2023/12/05 05:39:04;;;;;;;1999.90;999.90;;;;;;;9.87;68.37;99829.69;10414906;28;20145;-61
2023/12/05 05:44:07;;;;;;;1999.90;999.90;;;;;;;10.22;66.47;99824.56;10414747;28;20099;-61
2023/12/05 05:49:10;;;;;;;1999.90;999.90;;;;;;;10.25;66.95;99825.28;10414918;28;20049;-61
2023/12/05 05:54:12;;;;;;;1999.90;999.90;;;;;;;10.11;66.90;99823.66;10414936;28;20050;-61
2023/12/05 05:59:15;;;;;;;1999.90;999.90;;;;;;;9.88;68.50;99830.50;10414609;28;20560;-61
2023/12/05 06:04:17;;;;;;;1999.90;999.90;;;;;;;9.81;67.60;99835.31;10413830;28;20132;-61
2023/12/05 06:09:20;;;;;;;1999.90;999.90;;;;;;;10.03;67.33;99837.28;10414532;28;20045;-61
2023/12/05 06:14:22;;;;;;;1999.90;999.90;;;;;;;9.61;68.93;99852.38;10414559;28;20050;-61
2023/12/05 06:19:25;;;;;;;1999.90;999.90;;;;;;;9.38;68.46;99848.72;10414593;28;20053;-61
2023/12/05 06:24:27;;;;;;;1999.90;999.90;;;;;;;9.52;69.44;99856.47;10414043;28;20050;-61
2023/12/05 06:29:29;;;;;;;1999.90;999.90;;;;;;;9.30;68.94;99854.47;10413397;28;20045;-61
2023/12/05 06:34:32;;;;;;;1999.90;999.90;;;;;;;9.06;71.89;99860.38;10414061;28;20498;-61
2023/12/05 06:39:34;;;;;;;1999.90;999.90;;;;;;;9.33;70.04;99856.03;10413811;28;20053;-61
2023/12/05 06:44:37;;;;;;;1999.90;999.90;;;;;;;9.43;69.46;99857.94;10413685;28;20141;-61
2023/12/05 06:49:42;;;;;;;1999.90;999.90;;;;;;;10.31;66.68;99859.69;10413737;28;20056;-61
2023/12/05 06:54:45;;;;;;;1999.90;999.90;;;;;;;9.91;67.45;99864.28;10416911;28;20053;-61
2023/12/05 06:59:47;;;;;;;1999.90;999.90;;;;;;;9.88;68.18;99874.94;10419724;28;20059;-61
2023/12/05 07:04:50;;;;;;;1999.90;999.90;;;;;;;9.36;69.46;99889.78;10419465;28;20144;-61
2023/12/05 07:09:53;;;;;;;1999.90;999.90;;;;;;;9.97;67.27;99890.00;10419656;28;20060;-61
2023/12/05 07:14:55;;;;;;;1999.90;999.90;;;;;;;10.29;66.80;99894.75;10419082;28;20481;-61
2023/12/05 07:19:57;;;;;;;1999.90;999.90;;;;;;;10.29;66.57;99895.59;10420294;28;20050;-62
2023/12/05 07:25:00;;;;;;;1999.90;999.90;;;;;;;9.23;69.49;99902.81;10419793;28;20071;-61
2023/12/05 07:30:03;;;;;;;1999.90;999.90;;;;;;;9.45;67.56;99918.75;10419753;28;20490;-61
2023/12/05 07:35:06;;;;;;;1999.90;999.90;;;;;;;8.85;71.67;99921.81;10419736;28;20049;-61
2023/12/05 07:40:08;;;;;;;1999.90;999.90;;;;;;;9.51;69.13;99927.13;10419299;28;20061;-61
2023/12/05 07:45:11;;;;;;;1999.90;999.90;;;;;;;10.05;67.88;99932.13;10419210;28;20049;-61
2023/12/05 07:50:13;;;;;;;1999.90;999.90;;;;;;;9.38;69.66;99943.63;10418969;28;20392;-61
2023/12/05 07:55:19;;;;;;;1999.90;999.90;;;;;;;10.07;67.00;99943.34;10419066;28;20100;-61
2023/12/05 08:00:22;;;;;;;1999.90;999.90;;;;;;;9.75;68.06;99959.44;10400939;28;20511;-61
2023/12/05 08:05:24;;;;;;;1999.90;999.90;;;;;;;10.15;66.69;99954.09;10418036;28;20096;-61
2023/12/05 08:10:27;;;;;;;1999.90;999.90;;;;;;;9.37;69.28;99959.38;10418335;28;20079;-61
2023/12/05 08:15:29;;;;;;;1999.90;999.90;;;;;;;9.57;68.95;99964.13;10417891;28;20041;-61
2023/12/05 08:20:31;;;;;;;1999.90;999.90;;;;;;;8.85;69.35;99961.81;10417982;28;20115;-61
2023/12/05 08:25:34;;;;;;;1999.90;999.90;;;;;;;8.99;70.41;99966.13;10417501;28;20496;-61
2023/12/05 08:30:37;;;;;;;1999.90;999.90;;;;;;;9.07;71.77;99965.66;10417671;28;20129;-61
2023/12/05 08:35:40;;;;;;;1999.90;999.90;;;;;;;9.72;69.36;99972.72;10416142;28;20091;-61
2023/12/05 08:40:42;;;;;;;1999.90;999.90;;;;;;;9.95;68.22;99979.03;10416905;28;20053;-61
2023/12/05 08:45:44;;;;;;;1999.90;999.90;;;;;;;8.79;72.91;99984.84;10416866;28;20495;-61
2023/12/05 08:50:47;;;;;;;1999.90;999.90;;;;;;;9.46;70.20;99987.50;10410330;28;20057;-61
2023/12/05 08:55:49;;;;;;;1999.90;999.90;;;;;;;9.36;70.13;99984.66;10387454;28;20045;-61
2023/12/05 09:00:52;;;;;;;1999.90;999.90;;;;;;;9.73;69.64;99992.69;10401500;28;20045;-61
2023/12/05 09:05:54;;;;;;;1999.90;999.90;;;;;;;8.98;72.10;99994.94;10414253;28;20091;-61
2023/12/05 09:10:58;;;;;;;1999.90;999.90;;;;;;;9.47;71.38;100003.09;10394791;28;20099;-61
2023/12/05 09:16:00;;;;;;;1999.90;999.90;;;;;;;10.13;68.23;99999.63;10414417;28;20124;-61
2023/12/05 09:21:03;;;;;;;1999.90;999.90;;;;;;;10.09;68.58;100017.31;10416001;28;20500;-61
2023/12/05 09:26:06;;;;;;;1999.90;999.90;;;;;;;9.80;69.11;100019.25;10402538;28;20114;-61
2023/12/05 09:31:08;;;;;;;1999.90;999.90;;;;;;;9.69;68.78;100033.03;10415908;28;20404;-61
2023/12/05 09:36:11;;;;;;;1999.90;999.90;;;;;;;9.49;70.15;100035.16;10415323;28;20092;-61
2023/12/05 09:41:14;;;;;;;1999.90;999.90;;;;;;;9.85;70.00;100040.69;10415740;28;20053;-61
2023/12/05 09:46:18;;;;;;;1999.90;999.90;;;;;;;9.73;69.89;100054.59;10415183;28;20373;-61
2023/12/05 09:51:22;;;;;;;1999.90;999.90;;;;;;;9.92;68.88;100054.19;10411346;28;20136;-61
2023/12/05 09:56:25;;;;;;;1999.90;999.90;;;;;;;9.77;68.48;100054.28;10411098;28;20452;-61
2023/12/05 10:01:30;;;;;;;1999.90;999.90;;;;;;;9.64;68.99;100059.47;10378864;28;20151;-61
2023/12/05 10:06:35;;;;;;;1999.90;999.90;;;;;;;9.80;69.29;100061.94;10413775;28;20076;-61
2023/12/05 10:11:38;;;;;;;1999.90;999.90;;;;;;;9.34;69.96;100059.69;10413503;28;20076;-61
2023/12/05 10:16:40;;;;;;;1999.90;999.90;;;;;;;9.32;70.52;100068.56;10414446;28;20049;-60
2023/12/05 10:21:44;;;;;;;1999.90;999.90;;;;;;;9.81;68.83;100065.38;10413436;28;20049;-61
2023/12/05 10:26:47;;;;;;;1999.90;999.90;;;;;;;9.60;68.96;100071.06;10414309;28;20054;-60
2023/12/05 10:31:54;;;;;;;1999.90;999.90;;;;;;;9.88;69.57;100071.03;10422177;28;20522;-61
2023/12/05 10:37:03;;;;;;;1999.90;999.90;;;;;;;9.30;71.47;100071.28;10421918;28;20057;-60
2023/12/05 10:42:08;;;;;;;1999.90;999.90;;;;;;;9.01;72.29;100087.00;10421938;28;20129;-61
2023/12/05 10:47:12;;;;;;;1999.90;999.90;;;;;;;8.93;71.17;100087.47;10420341;28;20048;-61
2023/12/05 10:52:15;;;;;;;1999.90;999.90;;;;;;;9.35;72.73;100090.09;10421333;28;20057;-60
2023/12/05 10:57:33;;;;;;;1999.90;999.90;;;;;;;8.97;71.92;100095.13;10421188;28;20049;-61
2023/12/05 11:02:37;;;;;;;1999.90;999.90;;;;;;;8.90;69.35;100097.28;10421163;28;20128;-60
2023/12/05 11:07:40;;;;;;;1999.90;999.90;;;;;;;8.49;72.18;100109.28;10403205;28;20107;-61
2023/12/05 11:12:42;;;;;;;1999.90;999.90;;;;;;;9.39;69.60;100104.63;10419359;28;20050;-61
2023/12/05 11:18:11;;;;;;;1999.90;999.90;;;;;;;8.90;72.94;100113.75;10419255;28;20052;-60
2023/12/05 11:23:18;;;;;;;1999.90;999.90;;;;;;;8.44;72.29;100116.56;10414808;28;20128;-61
2023/12/05 11:28:35;;;;;;;1999.90;999.90;;;;;;;9.48;69.48;100118.88;10418861;28;20051;-60
2023/12/05 11:33:57;;;;;;;1999.90;999.90;;;;;;;9.05;72.11;100126.81;10419893;28;20056;-60
2023/12/05 11:39:00;;;;;;;;;;;;;;;9.54;69.73;100128.97;10419192;28;20053;-61
2023/12/05 11:44:11;;;;;;;;;;;;;;;9.56;70.55;100131.47;10419785;28;19925;-61
2023/12/05 11:49:27;;;;;;;1999.90;999.90;;;;;;;10.03;69.38;100128.38;10419003;28;19928;-61
2023/12/05 11:54:33;;;;;;;1999.90;999.90;;;;;;;8.98;72.16;100144.63;10417659;28;20045;-61
2023/12/05 11:59:40;;;;;;;1999.90;999.90;;;;;;;9.33;70.79;100149.47;10418935;28;20041;-60
2023/12/05 12:04:44;;;;;;;1999.90;999.90;;;;;;;9.38;71.64;100154.38;10417389;28;20063;-60
2023/12/05 12:09:46;;;;;;;1999.90;999.90;;;;;;;9.26;71.19;100159.44;10418480;28;20133;-61
2023/12/05 12:14:49;;;;;;;1999.90;999.90;;;;;;;9.30;70.26;100160.09;10418138;28;20053;-61
2023/12/05 12:19:51;;;;;;;1999.90;999.90;;;;;;;9.53;71.11;100168.25;10418215;28;20381;-61
2023/12/05 12:25:11;;;;;;;1999.90;999.90;;;;;;;9.30;72.22;100168.75;10417764;28;20057;-61
2023/12/05 12:30:15;;;;;;;1999.90;999.90;;;;;;;9.57;71.22;100173.19;10416320;28;20545;-61
2023/12/05 12:35:19;;;;;;;1999.90;999.90;;;;;;;9.19;71.62;100181.63;10416233;28;20049;-61
2023/12/05 12:40:22;;;;;;;1999.90;999.90;;;;;;;9.03;72.79;100178.31;10416990;28;20085;-61
2023/12/05 12:45:28;;;;;;;1999.90;999.90;;;;;;;9.62;71.21;100172.91;10415836;28;20455;-61
2023/12/05 12:50:31;;;;;;;1999.90;999.90;;;;;;;8.96;72.28;100183.06;10415708;28;20049;-61
2023/12/05 12:55:33;;;;;;;1999.90;999.90;;;;;;;9.24;71.05;100179.56;10416745;28;20049;-61
2023/12/05 13:00:40;;;;;;;1999.90;999.90;;;;;;;8.76;72.68;100189.47;10414998;28;20207;-61
2023/12/05 13:05:43;;;;;;;1999.90;999.90;;;;;;;8.11;75.05;100206.22;10415254;28;20053;-65
2023/12/05 13:10:47;;;;;;;1999.90;999.90;;;;;;;9.46;71.11;100207.00;10416069;28;20058;-65
2023/12/05 13:15:49;;;;;;;1999.90;999.90;;;;;;;9.39;70.55;100209.16;10414474;28;20494;-61
2023/12/05 13:20:53;;;;;;;1999.90;999.90;;;;;;;9.21;71.34;100215.50;10413944;28;20489;-61
2023/12/05 13:25:57;;;;;;;1999.90;999.90;;;;;;;9.36;70.53;100222.38;10415116;28;20049;-61
2023/12/05 13:30:59;;;;;;;1999.90;999.90;;;;;;;9.66;69.36;100221.44;10415147;28;20045;-61
2023/12/05 13:36:02;;;;;;;1999.90;999.90;;;;;;;8.74;72.24;100226.09;10414488;28;20428;-61
2023/12/05 13:41:05;;;;;;;1999.90;999.90;;;;;;;9.46;70.87;100233.97;10412809;28;20389;-61
2023/12/05 13:46:07;;;;;;;1999.90;999.90;;;;;;;9.25;69.87;100230.06;10413880;28;20046;-61
2023/12/05 13:51:10;;;;;;;1999.90;999.90;;;;;;;8.77;70.60;100235.50;10413771;28;20050;-61
2023/12/05 13:56:12;;;;;;;1999.90;999.90;;;;;;;9.31;69.19;100245.34;10413886;28;20045;-60
2023/12/05 14:01:15;;;;;;;1999.90;999.90;;;;;;;9.59;70.00;100241.06;10414771;28;20053;-61
2023/12/05 14:06:18;;;;;;;1999.90;999.90;;;;;;;8.86;70.48;100252.38;10422681;28;20107;-61
2023/12/05 14:11:21;;;;;;;1999.90;999.90;;;;;;;9.22;71.17;100258.97;10421733;28;20054;-61
2023/12/05 14:16:24;;;;;;;1999.90;999.90;;;;;;;8.80;69.91;100265.81;10422928;28;20056;-60
2023/12/05 14:21:26;;;;;;;1999.90;999.90;;;;;;;8.91;72.58;100272.09;10421492;28;20132;-61
2023/12/05 14:26:28;;;;;;;1999.90;999.90;;;;;;;8.96;71.30;100277.06;10422153;28;20045;-60
2023/12/05 14:31:31;;;;;;;1999.90;999.90;;;;;;;8.31;74.26;100285.94;10422361;28;20135;-60
2023/12/05 14:36:33;;;;;;;1999.90;999.90;;;;;;;9.05;69.92;100296.56;10421700;28;20088;-61
2023/12/05 14:41:36;;;;;;;1999.90;999.90;;;;;;;8.70;71.46;100295.06;10421990;28;20431;-60
2023/12/05 14:46:38;;;;;;;1999.90;999.90;;;;;;;8.45;71.55;100300.00;10421510;28;20128;-61
2023/12/05 14:51:40;;;;;;;1999.90;999.90;;;;;;;9.08;70.67;100312.06;10433465;23;20096;-66
2023/12/05 14:56:43;;;;;;;1999.90;999.90;;;;;;;9.06;70.11;100313.88;10421432;28;20050;-66
2023/12/05 15:01:45;;;;;;;1999.90;999.90;;;;;;;9.75;67.64;100317.59;10421048;28;20399;-66
2023/12/05 15:06:47;;;;;;;1999.90;999.90;;;;;;;9.06;69.39;100340.00;10421014;28;20056;-66
2023/12/05 15:11:50;;;;;;;1999.90;999.90;;;;;;;9.04;69.17;100345.31;10420744;28;20081;-66
2023/12/05 15:16:52;;;;;;;1999.90;999.90;;;;;;;8.91;68.38;100355.63;10418057;28;20412;-66
2023/12/05 15:21:55;;;;;;;1999.90;999.90;;;;;;;8.30;72.30;100372.09;10420479;28;20125;-66
2023/12/05 15:26:59;;;;;;;1999.90;999.90;;;;;;;9.04;70.27;100370.59;10418855;28;20042;-67
2023/12/05 15:32:01;;;;;;;1999.90;999.90;;;;;;;9.20;68.23;100379.22;10420095;28;20096;-66
2023/12/05 15:37:04;;;;;;;1999.90;999.90;;;;;;;8.84;70.26;100390.88;10419747;28;20057;-66
2023/12/05 15:42:07;;;;;;;1999.90;999.90;;;;;;;8.64;71.80;100409.38;10402131;28;20539;-66
2023/12/05 15:47:09;;;;;;;1999.90;999.90;;;;;;;8.38;70.66;100419.47;10419219;28;20052;-66
2023/12/05 15:52:12;;;;;;;1999.90;999.90;;;;;;;8.54;70.85;100420.34;10418952;28;20067;-66
2023/12/05 15:57:15;;;;;;;1999.90;999.90;;;;;;;8.49;70.22;100424.97;10419150;28;20057;-66
2023/12/05 16:02:18;;;;;;;1999.90;999.90;;;;;;;8.12;71.54;100426.06;10418977;28;20046;-66
2023/12/05 16:07:21;;;;;;;1999.90;999.90;;;;;;;8.57;69.67;100437.59;10418591;28;20049;-66
2023/12/05 16:12:27;;;;;;;1999.90;999.90;;;;;;;8.84;70.72;100452.66;10417226;28;20057;-66
2023/12/05 16:17:30;;;;;;;1999.90;999.90;;;;;;;8.39;70.57;100455.06;10418281;28;20045;-66
2023/12/05 16:22:33;;;;;;;1999.90;999.90;;;;;;;8.16;72.59;100458.91;10417849;28;20481;-66
2023/12/05 16:27:35;;;;;;;1999.90;999.90;;;;;;;8.25;71.48;100457.56;10417332;28;20128;-66
2023/12/05 16:32:39;;;;;;;1999.90;999.90;;;;;;;8.39;71.36;100462.91;10416416;28;20049;-66
2023/12/05 16:37:44;;;;;;;1999.90;999.90;;;;;;;8.31;70.65;100478.13;10417282;28;20049;-66
2023/12/05 16:42:47;;;;;;;1999.90;999.90;;;;;;;8.22;70.14;100481.19;10417281;28;20107;-66
2023/12/05 16:47:55;;;;;;;1999.90;999.90;;;;;;;9.05;68.70;100476.75;10416904;28;20053;-66
2023/12/05 16:52:58;;;;;;;1999.90;999.90;;;;;;;9.04;66.78;100478.50;10417072;28;20056;-66
2023/12/05 16:58:00;;;;;;;1999.90;999.90;;;;;;;7.94;69.99;100490.47;10416558;28;20132;-66
2023/12/05 17:03:03;;;;;;;1999.90;999.90;;;;;;;8.17;71.80;100497.09;10415518;28;20060;-66
2023/12/05 17:08:05;;;;;;;1999.90;999.90;;;;;;;8.49;70.28;100505.00;10416289;28;20049;-66
2023/12/05 17:13:08;;;;;;;1999.90;999.90;;;;;;;7.98;70.33;100508.47;10416064;28;20049;-66
2023/12/05 17:18:10;;;;;;;1999.90;999.90;;;;;;;8.21;70.97;100511.66;10414931;28;20049;-66
2023/12/05 17:23:13;;;;;;;1999.90;999.90;;;;;;;7.98;70.78;100512.84;10415745;28;20546;-66
2023/12/05 17:28:15;;;;;;;1999.90;999.90;;;;;;;7.95;72.21;100528.63;10415721;28;20049;-66
2023/12/05 17:33:18;;;;;;;1999.90;999.90;;;;;;;7.82;69.85;100528.41;10414391;28;20132;-66
2023/12/05 17:38:21;;;;;;;1999.90;999.90;;;;;;;8.17;70.21;100531.00;10413588;28;20095;-66
2023/12/05 17:43:25;;;;;;;1999.90;999.90;;;;;;;7.88;71.00;100529.88;10413989;28;20481;-66
2023/12/05 17:48:27;;;;;;;1999.90;999.90;;;;;;;7.48;74.01;100529.22;10415117;28;20132;-66
2023/12/05 17:53:30;;;;;;;1999.90;999.90;;;;;;;7.90;71.29;100530.63;10414855;28;20057;-66
2023/12/05 17:58:33;;;;;;;1999.90;999.90;;;;;;;8.33;71.19;100546.69;10414873;28;20456;-66
2023/12/05 18:03:35;;;;;;;1999.90;999.90;;;;;;;8.07;68.63;100553.22;10414951;28;20140;-66
2023/12/05 18:08:38;;;;;;;1999.90;999.90;;;;;;;7.95;71.08;100557.31;10414783;28;20053;-66
2023/12/05 18:13:41;;;;;;;1999.90;999.90;;;;;;;8.13;70.61;100569.41;10413418;28;20392;-66
2023/12/05 18:18:49;;;;;;;1999.90;999.90;;;;;;;8.30;70.55;100576.38;10414719;28;20055;-66
2023/12/05 18:23:52;;;;;;;1999.90;999.90;;;;;;;7.94;71.43;100581.69;10414478;28;20084;-66
2023/12/05 18:28:55;;;;;;;1999.90;999.90;;;;;;;8.32;70.53;100586.72;10414287;28;20460;-66
2023/12/05 18:33:57;;;;;;;1999.90;999.90;;;;;;;8.45;68.29;100586.97;10414382;28;20080;-66
2023/12/05 18:39:00;;;;;;;1999.90;999.90;;;;;;;8.34;70.10;100597.94;10412988;28;20104;-66
2023/12/05 18:44:02;;;;;;;1999.90;999.90;;;;;;;8.21;71.12;100607.31;10412949;28;20408;-66
2023/12/05 18:49:05;;;;;;;1999.90;999.90;;;;;;;7.71;72.57;100606.28;10416052;28;20133;-66
2023/12/05 18:54:07;;;;;;;1999.90;999.90;;;;;;;7.40;74.47;100611.19;10421196;28;20385;-66
2023/12/05 18:59:10;;;;;;;1999.90;999.90;;;;;;;7.44;72.45;100617.09;10421210;28;20049;-66
2023/12/05 19:04:12;;;;;;;1999.90;999.90;;;;;;;7.43;73.58;100631.91;10421028;28;20078;-66
2023/12/05 19:09:15;;;;;;;1999.90;999.90;;;;;;;7.86;71.23;100644.63;10420785;28;20046;-66
2023/12/05 19:14:17;;;;;;;1999.90;999.90;;;;;;;7.89;70.69;100648.88;10420658;28;20103;-66
2023/12/05 19:19:20;;;;;;;1999.90;999.90;;;;;;;7.69;73.26;100650.66;10420633;28;20076;-66
2023/12/05 19:24:22;;;;;;;1999.90;999.90;;;;;;;7.62;72.57;100655.31;10419157;28;20415;-66
2023/12/05 19:29:25;;;;;;;1999.90;999.90;;;;;;;7.76;71.51;100659.03;10419931;28;20420;-66
2023/12/05 19:34:27;;;;;;;1999.90;999.90;;;;;;;7.29;73.12;100657.72;10418813;28;20050;-66
2023/12/05 19:39:43;;;;;;;1999.90;999.90;;;;;;;7.49;73.83;100659.41;10418938;28;20099;-66
2023/12/05 19:44:46;;;;;;;1999.90;999.90;;;;;;;7.69;71.00;100665.47;10419581;28;20077;-66
2023/12/05 19:49:48;;;;;;;1999.90;999.90;;;;;;;8.10;70.42;100665.22;10419219;28;20081;-66
2023/12/05 19:54:51;;;;;;;1999.90;999.90;;;;;;;7.27;71.98;100671.75;10417677;28;20413;-66
2023/12/05 19:59:53;;;;;;;1999.90;999.90;;;;;;;7.55;71.69;100677.38;10418313;28;20080;-66
2023/12/05 20:04:56;;;;;;;1999.90;999.90;;;;;;;7.81;70.52;100676.13;10418897;28;20053;-66
2023/12/05 20:09:59;;;;;;;1999.90;999.90;;;;;;;8.33;68.38;100680.56;10418530;28;20128;-66
2023/12/05 20:15:02;;;;;;;1999.90;999.90;;;;;;;8.16;69.82;100684.00;10417567;28;20493;-66
2023/12/05 20:20:05;;;;;;;1999.90;999.90;;;;;;;8.51;67.52;100688.44;10418115;28;20084;-66
2023/12/05 20:25:08;;;;;;;1999.90;999.90;;;;;;;8.72;67.50;100689.97;10418038;28;20083;-66
2023/12/05 20:30:10;;;;;;;1999.90;999.90;;;;;;;8.35;67.92;100688.31;10416449;28;20451;-66
2023/12/05 20:35:13;;;;;;;1999.90;999.90;;;;;;;7.96;69.79;100700.63;10417581;28;20060;-66
2023/12/05 20:40:16;;;;;;;1999.90;999.90;;;;;;;7.25;71.34;100705.66;10416425;28;20100;-66
2023/12/05 20:45:19;;;;;;;1999.90;999.90;;;;;;;7.72;69.75;100702.63;10417110;28;20502;-66
2023/12/05 20:50:23;;;;;;;1999.90;999.90;;;;;;;7.22;72.31;100708.41;10416913;28;20077;-65
2023/12/05 20:55:26;;;;;;;1999.90;999.90;;;;;;;7.78;70.89;100704.09;10416674;28;20092;-66
2023/12/05 21:00:28;;;;;;;1999.90;999.90;;;;;;;7.88;70.07;100707.94;10415473;28;20073;-66
2023/12/05 21:05:31;;;;;;;1999.90;999.90;;;;;;;8.25;68.70;100711.41;10415395;28;20049;-66
2023/12/05 21:10:33;;;;;;;1999.90;999.90;;;;;;;8.40;68.03;100716.78;10416041;28;20456;-66
2023/12/05 21:15:36;;;;;;;1999.90;999.90;;;;;;;7.69;70.10;100728.84;10397954;28;20412;-66
2023/12/05 21:20:38;;;;;;;1999.90;999.90;;;;;;;8.18;67.66;100736.09;10415800;28;20045;-66
2023/12/05 21:25:40;;;;;;;1999.90;999.90;;;;;;;8.08;68.95;100735.69;10414529;28;20049;-66
2023/12/05 21:30:43;;;;;;;1999.90;999.90;;;;;;;7.98;68.90;100737.91;10415406;28;20552;-66
2023/12/05 21:35:46;;;;;;;1999.90;999.90;;;;;;;8.05;68.24;100741.03;10415425;28;20057;-66
2023/12/05 21:40:49;;;;;;;1999.90;999.90;;;;;;;8.21;67.78;100754.22;10414364;28;20408;-66
2023/12/05 21:45:52;;;;;;;1999.90;999.90;;;;;;;8.50;66.53;100752.81;10415165;28;20477;-66
2023/12/05 21:50:54;;;;;;;1999.90;999.90;;;;;;;7.98;67.82;100755.28;10413631;28;20049;-65
2023/12/05 21:55:58;;;;;;;1999.90;999.90;;;;;;;7.53;69.01;100765.19;10413868;28;20408;-66
2023/12/05 22:01:00;;;;;;;1999.90;999.90;;;;;;;7.56;69.88;100772.84;10413740;28;20049;-66
2023/12/05 22:06:04;;;;;;;1999.90;999.90;;;;;;;7.76;70.30;100776.31;10414961;28;20128;-66
2023/12/05 22:11:07;;;;;;;1999.90;999.90;;;;;;;7.48;70.05;100774.09;10413436;28;20408;-66
2023/12/05 22:16:09;;;;;;;1999.90;999.90;;;;;;;7.59;70.63;100780.53;10414803;28;20053;-66
2023/12/05 22:21:12;;;;;;;1999.90;999.90;;;;;;;7.28;70.47;100780.19;10397193;28;20416;-65